sensor_id;sensor_type;location;lat;lon;timestamp;pressure;altitude;pressure_sealevel;temperature;humidity
51289;BME280;37372;52.294;5.152;2023-03-25T00:01:09;100017.91;;;9.20;68.54
51289;BME280;37372;52.294;5.152;2023-03-25T00:03:39;100024.59;;;9.12;69.16
51289;BME280;37372;52.294;5.152;2023-03-25T00:06:12;100028.66;;;9.10;69.66
51289;BME280;37372;52.294;5.152;2023-03-25T00:08:38;100023.78;;;9.12;70.59
51289;BME280;37372;52.294;5.152;2023-03-25T00:11:05;100037.34;;;9.07;72.17
51289;BME280;37372;52.294;5.152;2023-03-25T00:13:41;100037.72;;;8.87;75.42
51289;BME280;37372;52.294;5.152;2023-03-25T00:16:06;100033.09;;;8.76;76.25
51289;BME280;37372;52.294;5.152;2023-03-25T00:18:45;100035.59;;;8.65;77.32
51289;BME280;37372;52.294;5.152;2023-03-25T00:21:13;100035.59;;;8.65;76.62
51289;BME280;37372;52.294;5.152;2023-03-25T00:23:41;100023.84;;;8.53;76.92
51289;BME280;37372;52.294;5.152;2023-03-25T00:26:07;100033.56;;;8.49;76.47
51289;BME280;37372;52.294;5.152;2023-03-25T00:28:42;100035.47;;;8.49;77.00
51289;BME280;37372;52.294;5.152;2023-03-25T00:31:10;100027.88;;;8.51;77.38
51289;BME280;37372;52.294;5.152;2023-03-25T00:33:37;100035.47;;;8.49;76.68
51289;BME280;37372;52.294;5.152;2023-03-25T00:36:06;100035.97;;;8.57;76.17
51289;BME280;37372;52.294;5.152;2023-03-25T00:38:43;100019.91;;;8.61;74.70
51289;BME280;37372;52.294;5.152;2023-03-25T00:41:22;100022.19;;;8.64;73.92
51289;BME280;37372;52.294;5.152;2023-03-25T00:43:55;100027.03;;;8.74;73.75
51289;BME280;37372;52.294;5.152;2023-03-25T00:46:26;100028.34;;;8.71;73.80
51289;BME280;37372;52.294;5.152;2023-03-25T00:48:55;100022.28;;;8.69;74.12
51289;BME280;37372;52.294;5.152;2023-03-25T00:51:24;100011.00;;;8.77;72.83
51289;BME280;37372;52.294;5.152;2023-03-25T00:53:54;100014.19;;;8.74;73.76
51289;BME280;37372;52.294;5.152;2023-03-25T00:56:23;100019.41;;;8.76;72.39
51289;BME280;37372;52.294;5.152;2023-03-25T00:58:49;100015.63;;;8.77;72.36
51289;BME280;37372;52.294;5.152;2023-03-25T01:01:24;100019.66;;;8.74;72.85
51289;BME280;37372;52.294;5.152;2023-03-25T01:03:55;100010.03;;;8.83;72.19
51289;BME280;37372;52.294;5.152;2023-03-25T01:06:26;100018.00;;;8.73;72.10
51289;BME280;37372;52.294;5.152;2023-03-25T01:08:57;100021.56;;;8.74;72.30
51289;BME280;37372;52.294;5.152;2023-03-25T01:11:30;100021.31;;;8.75;72.26
51289;BME280;37372;52.294;5.152;2023-03-25T01:14:05;100014.91;;;8.81;71.94
51289;BME280;37372;52.294;5.152;2023-03-25T01:16:46;100018.25;;;8.72;72.48
51289;BME280;37372;52.294;5.152;2023-03-25T01:19:12;100014.81;;;8.76;72.79
51289;BME280;37372;52.294;5.152;2023-03-25T01:21:42;100019.09;;;8.72;72.96
51289;BME280;37372;52.294;5.152;2023-03-25T01:24:12;100002.31;;;8.68;72.20
51289;BME280;37372;52.294;5.152;2023-03-25T01:26:50;100020.75;;;8.73;72.52
51289;BME280;37372;52.294;5.152;2023-03-25T01:29:18;100014.69;;;8.71;72.99
51289;BME280;37372;52.294;5.152;2023-03-25T01:31:46;100009.69;;;8.68;73.04
51289;BME280;37372;52.294;5.152;2023-03-25T01:34:12;100010.75;;;8.67;73.77
51289;BME280;37372;52.294;5.152;2023-03-25T01:36:51;100018.13;;;8.66;73.40
51289;BME280;37372;52.294;5.152;2023-03-25T01:39:20;100008.97;;;8.61;74.04
51289;BME280;37372;52.294;5.152;2023-03-25T01:41:48;100014.19;;;8.62;74.67
51289;BME280;37372;52.294;5.152;2023-03-25T01:46:52;100009.34;;;8.53;75.33
51289;BME280;37372;52.294;5.152;2023-03-25T01:49:25;99994.59;;;8.54;75.22
51289;BME280;37372;52.294;5.152;2023-03-25T01:52:00;100002.22;;;8.52;75.42
51289;BME280;37372;52.294;5.152;2023-03-25T01:54:28;100015.63;;;8.53;75.14
51289;BME280;37372;52.294;5.152;2023-03-25T01:56:55;100003.88;;;8.53;75.24
51289;BME280;37372;52.294;5.152;2023-03-25T01:59:25;100005.19;;;8.50;75.37
51289;BME280;37372;52.294;5.152;2023-03-25T02:01:55;100000.66;;;8.56;74.53
51289;BME280;37372;52.294;5.152;2023-03-25T02:04:30;100013.47;;;8.44;75.71
51289;BME280;37372;52.294;5.152;2023-03-25T02:07:03;100003.88;;;8.53;75.18
51289;BME280;37372;52.294;5.152;2023-03-25T02:09:33;100012.66;;;8.55;76.03
51289;BME280;37372;52.294;5.152;2023-03-25T02:11:59;100001.00;;;8.36;77.39
51289;BME280;37372;52.294;5.152;2023-03-25T02:14:28;99994.56;;;8.30;78.02
51289;BME280;37372;52.294;5.152;2023-03-25T02:22:56;99991.22;;;8.17;78.84
51289;BME280;37372;52.294;5.152;2023-03-25T02:43:15;99993.63;;;8.36;77.11
51289;BME280;37372;52.294;5.152;2023-03-25T02:45:38;99988.53;;;8.40;76.95
51289;BME280;37372;52.294;5.152;2023-03-25T02:48:11;99989.47;;;8.34;77.21
51289;BME280;37372;52.294;5.152;2023-03-25T02:50:49;99979.53;;;8.39;76.76
51289;BME280;37372;52.294;5.152;2023-03-25T02:53:22;99986.66;;;8.40;76.93
51289;BME280;37372;52.294;5.152;2023-03-25T02:55:51;99981.66;;;8.37;77.27
51289;BME280;37372;52.294;5.152;2023-03-25T02:58:26;99984.41;;;8.37;76.98
51289;BME280;37372;52.294;5.152;2023-03-25T03:00:54;99969.16;;;8.41;76.28
51289;BME280;37372;52.294;5.152;2023-03-25T03:03:24;99963.00;;;8.46;76.84
51289;BME280;37372;52.294;5.152;2023-03-25T03:05:50;99962.53;;;8.37;76.70
51289;BME280;37372;52.294;5.152;2023-03-25T03:11:18;99960.84;;;8.36;77.06
51289;BME280;37372;52.294;5.152;2023-03-25T03:22:32;99960.59;;;8.50;76.73
51289;BME280;37372;52.294;5.152;2023-03-25T03:25:09;99967.13;;;8.49;76.82
51289;BME280;37372;52.294;5.152;2023-03-25T03:27:47;99964.19;;;8.38;77.36
51289;BME280;37372;52.294;5.152;2023-03-25T03:30:48;99956.94;;;8.44;76.91
51289;BME280;37372;52.294;5.152;2023-03-25T03:36:09;99957.50;;;8.34;77.95
51289;BME280;37372;52.294;5.152;2023-03-25T03:38:43;99942.78;;;8.35;78.08
51289;BME280;37372;52.294;5.152;2023-03-25T03:41:16;99946.84;;;8.45;77.13
51289;BME280;37372;52.294;5.152;2023-03-25T03:43:47;99948.13;;;8.42;77.86
51289;BME280;37372;52.294;5.152;2023-03-25T03:49:31;99948.72;;;8.32;78.99
51289;BME280;37372;52.294;5.152;2023-03-25T03:52:09;99940.06;;;8.35;78.83
51289;BME280;37372;52.294;5.152;2023-03-25T03:57:27;99940.16;;;8.17;79.22
51289;BME280;37372;52.294;5.152;2023-03-25T04:00:11;99941.34;;;8.21;79.54
51289;BME280;37372;52.294;5.152;2023-03-25T04:02:40;99946.94;;;8.26;79.36
51289;BME280;37372;52.294;5.152;2023-03-25T04:05:08;99955.25;;;8.20;79.79
51289;BME280;37372;52.294;5.152;2023-03-25T04:07:44;99954.41;;;8.19;79.91
51289;BME280;37372;52.294;5.152;2023-03-25T04:13:13;99971.50;;;8.14;80.08
51289;BME280;37372;52.294;5.152;2023-03-25T04:15:40;99964.97;;;8.15;80.04
51289;BME280;37372;52.294;5.152;2023-03-25T04:18:06;99958.56;;;8.10;80.37
51289;BME280;37372;52.294;5.152;2023-03-25T04:20:33;99961.91;;;8.12;80.27
51289;BME280;37372;52.294;5.152;2023-03-25T04:23:02;99958.09;;;8.13;79.81
51289;BME280;37372;52.294;5.152;2023-03-25T04:25:30;99959.03;;;8.07;79.89
51289;BME280;37372;52.294;5.152;2023-03-25T04:27:59;99955.47;;;8.06;80.49
51289;BME280;37372;52.294;5.152;2023-03-25T04:30:27;99956.19;;;8.02;80.32
51289;BME280;37372;52.294;5.152;2023-03-25T04:32:54;99959.41;;;7.99;80.55
51289;BME280;37372;52.294;5.152;2023-03-25T04:35:20;99965.69;;;7.99;80.39
51289;BME280;37372;52.294;5.152;2023-03-25T04:37:46;99965.69;;;7.99;80.07
51289;BME280;37372;52.294;5.152;2023-03-25T04:40:17;99972.69;;;8.07;80.34
51289;BME280;37372;52.294;5.152;2023-03-25T04:42:45;99970.66;;;8.02;79.59
51289;BME280;37372;52.294;5.152;2023-03-25T04:45:15;99960.94;;;8.06;79.10
51289;BME280;37372;52.294;5.152;2023-03-25T04:47:43;99968.53;;;8.04;79.04
51289;BME280;37372;52.294;5.152;2023-03-25T04:50:23;99971.75;;;8.01;79.38
51289;BME280;37372;52.294;5.152;2023-03-25T04:52:50;99960.94;;;8.06;79.63
51289;BME280;37372;52.294;5.152;2023-03-25T04:55:18;99968.53;;;8.04;79.36
51289;BME280;37372;52.294;5.152;2023-03-25T04:57:46;99965.69;;;7.99;80.16
51289;BME280;37372;52.294;5.152;2023-03-25T05:00:15;99965.31;;;7.96;79.58
51289;BME280;37372;52.294;5.152;2023-03-25T05:02:43;99968.63;;;7.98;79.75
51289;BME280;37372;52.294;5.152;2023-03-25T05:05:15;99956.75;;;8.04;78.89
51289;BME280;37372;52.294;5.152;2023-03-25T05:07:51;99958.09;;;8.01;78.88
51289;BME280;37372;52.294;5.152;2023-03-25T05:10:28;99958.66;;;8.03;78.93
51289;BME280;37372;52.294;5.152;2023-03-25T05:13:03;99967.59;;;7.99;78.76
51289;BME280;37372;52.294;5.152;2023-03-25T05:15:30;99973.28;;;8.09;78.21
51289;BME280;37372;52.294;5.152;2023-03-25T05:17:57;99976.81;;;7.98;78.46
51289;BME280;37372;52.294;5.152;2023-03-25T05:20:23;99978.72;;;7.97;78.78
51289;BME280;37372;52.294;5.152;2023-03-25T05:22:49;99985.25;;;7.96;78.46
51289;BME280;37372;52.294;5.152;2023-03-25T05:25:19;99991.69;;;8.02;78.73
51289;BME280;37372;52.294;5.152;2023-03-25T05:27:47;99997.75;;;8.04;78.78
51289;BME280;37372;52.294;5.152;2023-03-25T05:30:13;99992.16;;;8.10;77.50
51289;BME280;37372;52.294;5.152;2023-03-25T05:32:40;99992.41;;;8.09;77.73
51289;BME280;37372;52.294;5.152;2023-03-25T05:35:06;99994.06;;;8.10;77.56
51289;BME280;37372;52.294;5.152;2023-03-25T05:37:35;99990.88;;;8.13;77.24
51289;BME280;37372;52.294;5.152;2023-03-25T05:40:02;99992.44;;;8.21;76.56
51289;BME280;37372;52.294;5.152;2023-03-25T05:42:32;99993.75;;;8.18;76.83
51289;BME280;37372;52.294;5.152;2023-03-25T05:44:59;99991.00;;;8.18;76.90
51289;BME280;37372;52.294;5.152;2023-03-25T05:47:25;99996.66;;;8.05;76.94
51289;BME280;37372;52.294;5.152;2023-03-25T05:49:53;99990.88;;;8.13;76.44
51289;BME280;37372;52.294;5.152;2023-03-25T05:52:25;99990.75;;;8.08;76.46
51289;BME280;37372;52.294;5.152;2023-03-25T05:54:55;99994.06;;;8.10;76.38
51289;BME280;37372;52.294;5.152;2023-03-25T05:57:20;100013.44;;;8.08;76.41
51289;BME280;37372;52.294;5.152;2023-03-25T05:59:52;100022.09;;;8.05;76.56
51289;BME280;37372;52.294;5.152;2023-03-25T06:02:18;100005.13;;;8.15;76.56
51289;BME280;37372;52.294;5.152;2023-03-25T06:04:47;100012.38;;;8.21;76.21
51289;BME280;37372;52.294;5.152;2023-03-25T06:07:14;100012.13;;;8.11;76.31
51289;BME280;37372;52.294;5.152;2023-03-25T06:09:47;100002.25;;;8.10;76.91
51289;BME280;37372;52.294;5.152;2023-03-25T06:12:17;100022.94;;;8.06;77.45
51289;BME280;37372;52.294;5.152;2023-03-25T06:14:47;100024.72;;;8.12;77.38
51289;BME280;37372;52.294;5.152;2023-03-25T06:17:15;100019.63;;;8.15;78.05
51289;BME280;37372;52.294;5.152;2023-03-25T06:19:45;100016.28;;;8.13;78.96
51289;BME280;37372;52.294;5.152;2023-03-25T06:22:11;100019.47;;;7.99;80.52
51289;BME280;37372;52.294;5.152;2023-03-25T06:24:46;100022.78;;;7.89;80.61
51289;BME280;37372;52.294;5.152;2023-03-25T06:27:20;100023.94;;;7.81;81.55
51289;BME280;37372;52.294;5.152;2023-03-25T06:29:49;100031.16;;;7.76;82.03
51289;BME280;37372;52.294;5.152;2023-03-25T06:32:17;100022.81;;;7.71;82.30
51289;BME280;37372;52.294;5.152;2023-03-25T06:34:48;100036.44;;;7.59;82.20
51289;BME280;37372;52.294;5.152;2023-03-25T06:37:14;100026.72;;;7.63;82.39
51289;BME280;37372;52.294;5.152;2023-03-25T06:39:54;100024.09;;;7.56;82.63
51289;BME280;37372;52.294;5.152;2023-03-25T06:42:22;100029.59;;;7.68;81.79
51289;BME280;37372;52.294;5.152;2023-03-25T06:44:50;100028.53;;;7.69;81.49
51289;BME280;37372;52.294;5.152;2023-03-25T06:47:16;100031.16;;;7.76;82.14
51289;BME280;37372;52.294;5.152;2023-03-25T06:49:47;100027.25;;;7.83;81.80
51289;BME280;37372;52.294;5.152;2023-03-25T06:52:13;100029.75;;;7.85;81.59
51289;BME280;37372;52.294;5.152;2023-03-25T06:54:58;100028.47;;;7.87;80.47
51289;BME280;37372;52.294;5.152;2023-03-25T06:57:24;100028.00;;;7.91;80.19
51289;BME280;37372;52.294;5.152;2023-03-25T06:59:53;100034.06;;;7.93;80.67
51289;BME280;37372;52.294;5.152;2023-03-25T07:02:23;100031.22;;;7.99;80.40
51289;BME280;37372;52.294;5.152;2023-03-25T07:04:56;100035.16;;;8.03;80.33
51289;BME280;37372;52.294;5.152;2023-03-25T07:07:26;100033.72;;;8.01;80.71
51289;BME280;37372;52.294;5.152;2023-03-25T07:09:54;100044.50;;;7.96;80.26
51289;BME280;37372;52.294;5.152;2023-03-25T07:12:23;100027.31;;;8.07;79.64
51289;BME280;37372;52.294;5.152;2023-03-25T07:15:00;100043.63;;;8.13;78.83
51289;BME280;37372;52.294;5.152;2023-03-25T07:17:25;100044.06;;;8.10;79.04
51289;BME280;37372;52.294;5.152;2023-03-25T07:19:59;100046.81;;;8.22;78.49
51289;BME280;37372;52.294;5.152;2023-03-25T07:22:25;100042.53;;;8.14;78.13
51289;BME280;37372;52.294;5.152;2023-03-25T07:25:01;100039.00;;;8.26;77.68
51289;BME280;37372;52.294;5.152;2023-03-25T07:27:26;100034.38;;;8.26;76.60
51289;BME280;37372;52.294;5.152;2023-03-25T07:29:59;100042.69;;;8.31;77.05
51289;BME280;37372;52.294;5.152;2023-03-25T07:32:25;100042.50;;;8.45;75.61
51289;BME280;37372;52.294;5.152;2023-03-25T07:34:53;100050.81;;;8.50;75.55
51289;BME280;37372;52.294;5.152;2023-03-25T07:37:19;100045.94;;;8.52;75.03
51289;BME280;37372;52.294;5.152;2023-03-25T07:39:59;100037.75;;;8.63;74.64
51289;BME280;37372;52.294;5.152;2023-03-25T07:42:25;100045.84;;;8.58;74.82
51289;BME280;37372;52.294;5.152;2023-03-25T07:45:07;100041.44;;;8.57;74.54
51289;BME280;37372;52.294;5.152;2023-03-25T07:47:36;100038.47;;;8.59;74.91
51289;BME280;37372;52.294;5.152;2023-03-25T07:50:03;100052.47;;;8.62;74.94
51289;BME280;37372;52.294;5.152;2023-03-25T07:52:29;100044.53;;;8.73;74.61
51289;BME280;37372;52.294;5.152;2023-03-25T07:55:09;100042.25;;;8.81;74.47
51289;BME280;37372;52.294;5.152;2023-03-25T07:57:35;100055.66;;;8.94;72.99
51289;BME280;37372;52.294;5.152;2023-03-25T08:00:10;100049.88;;;8.91;73.23
51289;BME280;37372;52.294;5.152;2023-03-25T08:02:36;100067.44;;;9.07;72.25
51289;BME280;37372;52.294;5.152;2023-03-25T08:05:06;100039.00;;;9.08;72.16
51289;BME280;37372;52.294;5.152;2023-03-25T08:07:32;100064.50;;;8.97;72.45
51289;BME280;37372;52.294;5.152;2023-03-25T08:10:13;100057.56;;;8.94;72.63
51289;BME280;37372;52.294;5.152;2023-03-25T08:12:42;100070.91;;;8.90;73.19
51289;BME280;37372;52.294;5.152;2023-03-25T08:15:14;100065.56;;;8.95;73.24
51289;BME280;37372;52.294;5.152;2023-03-25T08:17:41;100070.66;;;8.92;73.38
51289;BME280;37372;52.294;5.152;2023-03-25T08:20:18;100072.81;;;8.78;74.84
51289;BME280;37372;52.294;5.152;2023-03-25T08:22:46;100079.81;;;8.74;75.52
51289;BME280;37372;52.294;5.152;2023-03-25T08:25:18;100075.06;;;8.81;74.32
51289;BME280;37372;52.294;5.152;2023-03-25T08:27:44;100068.44;;;8.89;73.33
51289;BME280;37372;52.294;5.152;2023-03-25T08:30:10;100070.53;;;8.99;73.23
51289;BME280;37372;52.294;5.152;2023-03-25T08:32:36;100066.84;;;9.05;73.16
51289;BME280;37372;52.294;5.152;2023-03-25T08:35:25;100070.28;;;9.00;73.36
51289;BME280;37372;52.294;5.152;2023-03-25T08:37:54;100075.06;;;9.05;72.43
51289;BME280;37372;52.294;5.152;2023-03-25T08:40:19;100072.91;;;9.07;71.96
51289;BME280;37372;52.294;5.152;2023-03-25T08:42:46;100078.03;;;9.03;74.65
51289;BME280;37372;52.294;5.152;2023-03-25T08:45:13;100088.72;;;8.81;75.68
51289;BME280;37372;52.294;5.152;2023-03-25T08:47:42;100079.69;;;8.92;74.78
51289;BME280;37372;52.294;5.152;2023-03-25T08:50:13;100083.84;;;8.95;74.30
51289;BME280;37372;52.294;5.152;2023-03-25T08:52:41;100088.25;;;9.08;74.02
51289;BME280;37372;52.294;5.152;2023-03-25T08:55:08;100083.72;;;9.25;73.67
51289;BME280;37372;52.294;5.152;2023-03-25T08:57:37;100076.81;;;9.34;74.01
51289;BME280;37372;52.294;5.152;2023-03-25T09:00:21;100077.28;;;9.31;73.16
51289;BME280;37372;52.294;5.152;2023-03-25T09:02:49;100084.28;;;9.27;73.86
51289;BME280;37372;52.294;5.152;2023-03-25T09:05:27;100085.59;;;9.36;73.19
51289;BME280;37372;52.294;5.152;2023-03-25T09:07:53;100084.50;;;9.37;74.04
51289;BME280;37372;52.294;5.152;2023-03-25T09:10:20;100092.88;;;9.31;73.60
51289;BME280;37372;52.294;5.152;2023-03-25T09:12:45;100081.72;;;9.61;72.97
51289;BME280;37372;52.294;5.152;2023-03-25T09:15:30;100083.66;;;9.77;71.23
51289;BME280;37372;52.294;5.152;2023-03-25T09:17:56;100093.41;;;9.85;71.73
51289;BME280;37372;52.294;5.152;2023-03-25T09:20:45;100091.03;;;9.88;71.55
51289;BME280;37372;52.294;5.152;2023-03-25T09:23:19;100086.88;;;9.86;70.34
51289;BME280;37372;52.294;5.152;2023-03-25T09:25:46;100083.53;;;9.84;69.76
51289;BME280;37372;52.294;5.152;2023-03-25T09:28:12;100096.94;;;9.97;69.53
51289;BME280;37372;52.294;5.152;2023-03-25T09:30:39;100081.31;;;9.97;68.51
51289;BME280;37372;52.294;5.152;2023-03-25T09:33:06;100100.31;;;9.87;68.47
51289;BME280;37372;52.294;5.152;2023-03-25T09:35:31;100091.28;;;9.87;68.85
51289;BME280;37372;52.294;5.152;2023-03-25T09:37:57;100109.03;;;10.13;67.54
51289;BME280;37372;52.294;5.152;2023-03-25T09:40:23;100098.47;;;10.21;67.41
51289;BME280;37372;52.294;5.152;2023-03-25T09:45:45;100094.63;;;10.34;67.02
51289;BME280;37372;52.294;5.152;2023-03-25T09:48:28;100105.28;;;10.19;67.28
51289;BME280;37372;52.294;5.152;2023-03-25T09:51:29;100098.53;;;10.38;66.89
51289;BME280;37372;52.294;5.152;2023-03-25T09:57:00;100115.31;;;10.25;67.11
51289;BME280;37372;52.294;5.152;2023-03-25T09:59:43;100108.16;;;10.41;66.49
51289;BME280;37372;52.294;5.152;2023-03-25T10:08:23;100116.81;;;10.66;65.56
51289;BME280;37372;52.294;5.152;2023-03-25T10:11:46;100117.41;;;10.51;65.40
51289;BME280;37372;52.294;5.152;2023-03-25T10:14:01;100116.66;;;10.56;65.51
51289;BME280;37372;52.294;5.152;2023-03-25T10:25:41;100145.69;;;11.02;64.42
51289;BME280;37372;52.294;5.152;2023-03-25T10:28:16;100130.59;;;10.88;63.82
51289;BME280;37372;52.294;5.152;2023-03-25T10:30:50;100130.78;;;10.48;65.56
51289;BME280;37372;52.294;5.152;2023-03-25T10:33:34;100158.34;;;10.41;65.08
51289;BME280;37372;52.294;5.152;2023-03-25T10:36:00;100145.06;;;10.33;65.03
51289;BME280;37372;52.294;5.152;2023-03-25T10:38:32;100139.06;;;10.36;65.13
51289;BME280;37372;52.294;5.152;2023-03-25T10:41:15;100117.47;;;10.40;64.64
51289;BME280;37372;52.294;5.152;2023-03-25T10:43:44;100145.09;;;10.50;64.49
51289;BME280;37372;52.294;5.152;2023-03-25T10:46:17;100143.63;;;10.76;63.55
51289;BME280;37372;52.294;5.152;2023-03-25T10:48:47;100146.59;;;10.91;63.29
51289;BME280;37372;52.294;5.152;2023-03-25T10:51:17;100156.41;;;10.70;63.04
51289;BME280;37372;52.294;5.152;2023-03-25T10:53:47;100146.06;;;10.94;62.86
51289;BME280;37372;52.294;5.152;2023-03-25T10:56:20;100151.81;;;10.93;61.85
51289;BME280;37372;52.294;5.152;2023-03-25T10:59:01;100150.00;;;10.98;62.47
51289;BME280;37372;52.294;5.152;2023-03-25T11:01:39;100157.88;;;11.11;61.93
51289;BME280;37372;52.294;5.152;2023-03-25T11:04:08;100143.06;;;11.12;61.85
51289;BME280;37372;52.294;5.152;2023-03-25T11:06:37;100154.97;;;11.18;60.74
51289;BME280;37372;52.294;5.152;2023-03-25T11:09:22;100151.72;;;11.21;61.67
51289;BME280;37372;52.294;5.152;2023-03-25T11:11:51;100148.91;;;11.16;61.12
51289;BME280;37372;52.294;5.152;2023-03-25T11:14:22;100160.84;;;11.27;61.31
51289;BME280;37372;52.294;5.152;2023-03-25T11:16:55;100155.50;;;11.37;61.28
51289;BME280;37372;52.294;5.152;2023-03-25T11:19:26;100153.03;;;11.19;61.84
51289;BME280;37372;52.294;5.152;2023-03-25T11:21:56;100154.13;;;11.18;61.81
51289;BME280;37372;52.294;5.152;2023-03-25T11:24:32;100172.53;;;11.00;62.05
51289;BME280;37372;52.294;5.152;2023-03-25T11:26:58;100158.41;;;11.08;61.73
51289;BME280;37372;52.294;5.152;2023-03-25T11:29:35;100147.78;;;11.34;61.13
51289;BME280;37372;52.294;5.152;2023-03-25T11:35:26;100165.13;;;11.18;61.31
51289;BME280;37372;52.294;5.152;2023-03-25T11:38:18;100155.53;;;11.20;62.09
51289;BME280;37372;52.294;5.152;2023-03-25T11:40:58;100168.25;;;11.26;61.64
51289;BME280;37372;52.294;5.152;2023-03-25T11:43:36;100154.38;;;11.55;60.85
51289;BME280;37372;52.294;5.152;2023-03-25T11:46:09;100160.84;;;11.27;61.12
51289;BME280;37372;52.294;5.152;2023-03-25T11:48:55;100172.97;;;11.48;59.62
51289;BME280;37372;52.294;5.152;2023-03-25T11:51:28;100193.78;;;11.27;60.48
51289;BME280;37372;52.294;5.152;2023-03-25T11:53:58;100183.72;;;11.32;60.97
51289;BME280;37372;52.294;5.152;2023-03-25T11:56:33;100186.81;;;11.19;61.36
51289;BME280;37372;52.294;5.152;2023-03-25T11:59:03;100182.00;;;11.09;61.47
51289;BME280;37372;52.294;5.152;2023-03-25T12:01:44;100176.44;;;10.88;62.79
51289;BME280;37372;52.294;5.152;2023-03-25T12:04:19;100171.69;;;11.33;61.65
51289;BME280;37372;52.294;5.152;2023-03-25T12:07:07;100152.47;;;11.17;61.56
51289;BME280;37372;52.294;5.152;2023-03-25T12:09:33;100167.72;;;11.46;60.52
51289;BME280;37372;52.294;5.152;2023-03-25T12:12:05;100164.03;;;11.57;59.98
51289;BME280;37372;52.294;5.152;2023-03-25T12:14:47;100174.94;;;11.52;59.68
51289;BME280;37372;52.294;5.152;2023-03-25T12:23:17;100185.72;;;11.37;60.65
51289;BME280;37372;52.294;5.152;2023-03-25T12:26:11;100184.88;;;11.36;60.58
51289;BME280;37372;52.294;5.152;2023-03-25T12:35:27;100163.97;;;10.97;61.43
51289;BME280;37372;52.294;5.152;2023-03-25T12:40:38;100165.56;;;10.76;61.51
51289;BME280;37372;52.294;5.152;2023-03-25T12:43:10;100180.50;;;10.85;61.23
51289;BME280;37372;52.294;5.152;2023-03-25T12:45:51;100165.53;;;11.09;61.50
51289;BME280;37372;52.294;5.152;2023-03-25T12:51:54;100165.13;;;11.56;58.78
51289;BME280;37372;52.294;5.152;2023-03-25T13:00:06;100161.91;;;11.64;58.76
51289;BME280;37372;52.294;5.152;2023-03-25T13:02:54;100162.28;;;11.90;59.21
51289;BME280;37372;52.294;5.152;2023-03-25T13:05:39;100180.31;;;11.81;58.72
51289;BME280;37372;52.294;5.152;2023-03-25T13:11:05;100171.81;;;11.44;58.17
51289;BME280;37372;52.294;5.152;2023-03-25T13:13:31;100166.66;;;11.47;58.40
51289;BME280;37372;52.294;5.152;2023-03-25T13:16:08;100176.91;;;11.35;58.98
51289;BME280;37372;52.294;5.152;2023-03-25T13:18:47;100169.50;;;11.35;59.69
51289;BME280;37372;52.294;5.152;2023-03-25T13:21:20;100177.16;;;11.33;59.74
51289;BME280;37372;52.294;5.152;2023-03-25T13:23:57;100197.44;;;11.32;59.31
51289;BME280;37372;52.294;5.152;2023-03-25T13:26:28;100192.28;;;11.53;59.27
51289;BME280;37372;52.294;5.152;2023-03-25T13:29:26;100195.03;;;11.53;59.21
51289;BME280;37372;52.294;5.152;2023-03-25T13:31:51;100208.03;;;11.24;59.77
51289;BME280;37372;52.294;5.152;2023-03-25T13:34:43;100217.09;;;10.91;60.69
51289;BME280;37372;52.294;5.152;2023-03-25T13:37:33;100199.31;;;10.76;60.93
51289;BME280;37372;52.294;5.152;2023-03-25T13:43:04;100227.81;;;9.31;75.40
51289;BME280;37372;52.294;5.152;2023-03-25T13:46:08;100201.47;;;8.83;77.44
51289;BME280;37372;52.294;5.152;2023-03-25T13:51:28;100194.34;;;8.82;77.64
51289;BME280;37372;52.294;5.152;2023-03-25T13:54:21;100217.31;;;9.05;77.49
51289;BME280;37372;52.294;5.152;2023-03-25T14:02:38;100228.28;;;9.63;74.26
51289;BME280;37372;52.294;5.152;2023-03-25T14:08:14;100228.13;;;9.82;72.65
51289;BME280;37372;52.294;5.152;2023-03-25T14:10:58;100256.22;;;9.89;70.74
51289;BME280;37372;52.294;5.152;2023-03-25T14:13:43;100243.19;;;10.19;69.15
51289;BME280;37372;52.294;5.152;2023-03-25T14:16:27;100241.16;;;10.26;68.57
51289;BME280;37372;52.294;5.152;2023-03-25T14:19:00;100246.25;;;10.35;68.54
51289;BME280;37372;52.294;5.152;2023-03-25T14:21:31;100259.25;;;10.16;69.15
51289;BME280;37372;52.294;5.152;2023-03-25T14:24:10;100255.09;;;10.13;69.95
51289;BME280;37372;52.294;5.152;2023-03-25T14:26:52;100260.47;;;10.08;70.42
51289;BME280;37372;52.294;5.152;2023-03-25T14:32:37;100252.03;;;9.98;73.01
51289;BME280;37372;52.294;5.152;2023-03-25T14:46:21;100306.88;;;8.98;76.69
51289;BME280;37372;52.294;5.152;2023-03-25T14:56:51;100293.13;;;8.26;83.15
51289;BME280;37372;52.294;5.152;2023-03-25T14:59:33;100307.69;;;8.20;83.96
51289;BME280;37372;52.294;5.152;2023-03-25T15:02:05;100384.53;;;8.05;84.98
51289;BME280;37372;52.294;5.152;2023-03-25T15:04:37;100360.69;;;7.75;84.55
51289;BME280;37372;52.294;5.152;2023-03-25T15:07:08;100352.97;;;7.47;84.18
51289;BME280;37372;52.294;5.152;2023-03-25T15:09:56;100373.06;;;7.28;84.73
51289;BME280;37372;52.294;5.152;2023-03-25T15:12:24;100363.53;;;7.05;84.95
51289;BME280;37372;52.294;5.152;2023-03-25T15:14:55;100356.72;;;6.90;84.47
51289;BME280;37372;52.294;5.152;2023-03-25T15:17:46;100354.69;;;6.78;85.02
51289;BME280;37372;52.294;5.152;2023-03-25T15:20:27;100363.25;;;6.82;85.80
51289;BME280;37372;52.294;5.152;2023-03-25T15:25:45;100378.91;;;6.55;86.96
51289;BME280;37372;52.294;5.152;2023-03-25T15:28:21;100369.47;;;6.58;90.97
51289;BME280;37372;52.294;5.152;2023-03-25T15:34:00;100359.59;;;6.95;86.25
51289;BME280;37372;52.294;5.152;2023-03-25T15:45:09;100389.06;;;7.18;84.63
51289;BME280;37372;52.294;5.152;2023-03-25T15:47:41;100401.81;;;7.24;84.98
51289;BME280;37372;52.294;5.152;2023-03-25T15:50:29;100401.88;;;7.17;86.43
51289;BME280;37372;52.294;5.152;2023-03-25T15:55:39;100402.47;;;7.19;86.20
51289;BME280;37372;52.294;5.152;2023-03-25T15:58:14;100402.06;;;7.22;86.38
51289;BME280;37372;52.294;5.152;2023-03-25T16:00:47;100395.75;;;7.22;86.69
51289;BME280;37372;52.294;5.152;2023-03-25T16:03:22;100393.88;;;7.22;87.05